Time;durP1;ratioP1;P1;durP2;ratioP2;P2;SDS_P1;SDS_P2;PMS_P1;PMS_P2;Temp;Humidity;BMP_temperature;BMP_pressure;BME280_temperature;BME280_humidity;BME280_pressure;Samples;Min_cycle;Max_cycle;Signal;HPM_P1;HPM_P2
2022/10/19 00:00:25;;;;;;;7.10;3.03;;;;;;;6.33;100.00;102763.91;5029680;28;20053;-87
2022/10/19 00:02:51;;;;;;;3.20;2.90;;;;;;;6.28;100.00;102758.06;5031171;28;20481;-87
2022/10/19 00:05:16;;;;;;;3.13;2.87;;;;;;;6.21;100.00;102758.59;5029835;28;20049;-87
2022/10/19 00:07:42;;;;;;;3.20;2.70;;;;;;;6.28;100.00;102763.44;5028715;28;20121;-87
2022/10/19 00:10:08;;;;;;;4.40;2.80;;;;;;;6.39;100.00;102752.56;5029529;28;20072;-87
2022/10/19 00:12:33;;;;;;;4.83;3.10;;;;;;;6.39;100.00;102761.50;5030487;28;20052;-88
2022/10/19 00:14:59;;;;;;;3.50;3.20;;;;;;;6.26;100.00;102752.81;5029985;28;20037;-87
2022/10/19 00:17:24;;;;;;;3.57;2.90;;;;;;;6.24;100.00;102750.25;5029839;28;20041;-88
2022/10/19 00:19:50;;;;;;;4.80;3.20;;;;;;;6.16;100.00;102738.47;5029602;28;20573;-87
2022/10/19 00:22:15;;;;;;;4.40;3.30;;;;;;;6.13;100.00;102744.13;5029503;28;20476;-88
2022/10/19 00:24:40;;;;;;;5.10;3.40;;;;;;;6.16;100.00;102754.59;5029966;28;20033;-87
2022/10/19 00:27:06;;;;;;;4.07;2.90;;;;;;;6.11;100.00;102752.34;5030148;28;20082;-87
2022/10/19 00:29:31;;;;;;;6.20;3.60;;;;;;;6.15;100.00;102751.06;5029493;28;20106;-87
2022/10/19 00:31:57;;;;;;;4.03;3.43;;;;;;;6.13;100.00;102760.28;5029722;28;20385;-87
2022/10/19 00:34:23;;;;;;;7.30;4.20;;;;;;;6.11;100.00;102751.50;5029213;28;20484;-87
2022/10/19 00:36:49;;;;;;;7.67;4.20;;;;;;;6.07;100.00;102757.13;5029434;28;20477;-87
2022/10/19 00:39:16;;;;;;;5.00;3.83;;;;;;;6.06;100.00;102750.03;5029351;28;20133;-87
2022/10/19 00:41:42;;;;;;;7.23;4.20;;;;;;;6.19;100.00;102746.28;5029783;28;20080;-87
2022/10/19 00:44:10;;;;;;;4.73;3.67;;;;;;;6.13;100.00;102744.97;5029143;28;20115;-86
2022/10/19 00:46:41;;;;;;;5.10;3.53;;;;;;;6.24;100.00;102741.31;5029139;28;20037;-87
2022/10/19 00:49:12;;;;;;;6.80;4.40;;;;;;;6.32;100.00;102740.66;5029498;28;20366;-86
2022/10/19 00:51:42;;;;;;;6.03;3.87;;;;;;;6.19;100.00;102738.22;5028801;28;20047;-86
2022/10/19 00:54:09;;;;;;;6.07;3.77;;;;;;;6.15;100.00;102748.38;5029527;28;20400;-86
2022/10/19 00:56:38;;;;;;;6.50;3.57;;;;;;;6.11;100.00;102752.34;5028995;28;20048;-86
2022/10/19 00:59:04;;;;;;;4.17;3.50;;;;;;;6.04;100.00;102751.19;5029661;28;20076;-86
2022/10/19 01:01:31;;;;;;;7.17;4.10;;;;;;;6.15;100.00;102751.06;5017526;28;20550;-86
2022/10/19 01:03:57;;;;;;;5.47;3.07;;;;;;;5.96;100.00;102729.44;5018550;28;20515;-86
2022/10/19 01:06:23;;;;;;;5.00;3.20;;;;;;;5.98;100.00;102749.84;5028714;28;20045;-86
2022/10/19 01:08:49;;;;;;;5.67;3.60;;;;;;;5.89;100.00;102737.19;5027811;28;20041;-86
2022/10/19 01:11:29;;;;;;;4.83;3.30;;;;;;;5.99;100.00;102745.34;5028676;28;20045;-86
2022/10/19 01:14:28;;;;;;;5.57;3.87;;;;;;;6.04;100.00;102753.88;5006673;28;20506;-86
2022/10/19 01:17:20;;;;;;;5.33;3.67;;;;;;;5.99;100.00;102748.88;5028362;28;20545;-86
2022/10/19 01:20:01;;;;;;;7.60;4.17;;;;;;;5.86;100.00;102726.69;5028424;28;20033;-86
2022/10/19 01:22:29;;;;;;;5.63;3.83;;;;;;;5.91;100.00;102738.75;5028850;28;20408;-86
2022/10/19 01:25:32;;;;;;;7.17;4.70;;;;;;;5.96;100.00;102740.22;5028611;28;20037;-86
2022/10/19 01:28:11;;;;;;;12.53;4.80;;;;;;;5.93;100.00;102741.31;5028974;28;20482;-86
2022/10/19 01:30:49;;;;;;;8.67;4.60;;;;;;;5.87;100.00;102739.16;5028526;28;20033;-85
2022/10/19 01:33:32;;;;;;;9.60;5.23;;;;;;;6.03;100.00;102738.72;5028171;28;20028;-86
2022/10/19 01:36:15;;;;;;;11.67;6.00;;;;;;;5.99;100.00;102726.50;5027976;28;20056;-86
2022/10/19 01:39:16;;;;;;;7.67;4.63;;;;;;;5.96;100.00;102738.38;5028938;28;20070;-86
2022/10/19 01:42:11;;;;;;;9.90;4.70;;;;;;;6.02;100.00;102720.84;5027967;28;20044;-86
2022/10/19 01:44:49;;;;;;;8.05;4.38;;;;;;;5.86;100.00;102741.00;5028029;28;20037;-86
2022/10/19 01:47:21;;;;;;;4.63;3.40;;;;;;;5.83;100.00;102732.34;5027672;28;20056;-86
2022/10/19 01:49:53;;;;;;;6.73;4.10;;;;;;;5.79;100.00;102731.75;5027806;28;20107;-86
2022/10/19 01:52:21;;;;;;;6.83;3.90;;;;;;;5.73;100.00;102722.38;5028039;28;20040;-87
2022/10/19 01:54:51;;;;;;;5.97;3.53;;;;;;;5.80;100.00;102733.47;5027907;28;20044;-87
2022/10/19 01:57:40;;;;;;;9.20;3.83;;;;;;;5.69;100.00;102712.88;5027790;28;20481;-86
2022/10/19 02:00:09;;;;;;;7.70;4.30;;;;;;;5.77;100.00;102733.75;4983131;28;20069;-87
2022/10/19 02:02:42;;;;;;;17.37;3.80;;;;;;;5.64;100.00;102719.66;4982744;28;20052;-86
2022/10/19 02:05:10;;;;;;;19.43;4.70;;;;;;;5.62;100.00;102727.00;4982549;28;20049;-88
2022/10/19 02:07:36;;;;;;;5.33;4.00;;;;;;;5.69;100.00;102726.31;4983304;28;20253;-88
2022/10/19 02:10:02;;;;;;;4.40;3.80;;;;;;;5.74;100.00;102723.25;4982629;28;20050;-88
2022/10/19 02:12:31;;;;;;;5.53;4.27;;;;;;;5.70;100.00;102714.59;4982694;28;20522;-86
2022/10/19 02:15:00;;;;;;;6.40;4.20;;;;;;;5.78;100.00;102708.56;4983160;28;20078;-86
2022/10/19 02:17:31;;;;;;;8.03;5.17;;;;;;;5.70;100.00;102709.22;4983018;28;20057;-86
2022/10/19 02:19:57;;;;;;;9.83;4.90;;;;;;;5.79;100.00;102704.00;4982586;28;20137;-86
2022/10/19 02:22:23;;;;;;;5.73;3.40;;;;;;;5.78;100.00;102697.78;4982845;28;20068;-86
2022/10/19 02:24:49;;;;;;;6.43;4.03;;;;;;;5.82;100.00;102693.84;4982180;28;20176;-86
2022/10/19 02:27:14;;;;;;;7.87;4.33;;;;;;;5.72;100.00;102695.63;4982156;28;20045;-87
2022/10/19 02:29:40;;;;;;;9.73;4.70;;;;;;;5.66;100.00;102693.50;4982616;28;20057;-87
2022/10/19 02:32:08;;;;;;;10.10;3.90;;;;;;;5.64;100.00;102695.44;5020687;28;20155;-86
2022/10/19 02:34:34;;;;;;;5.77;4.30;;;;;;;5.42;100.00;102662.34;5027138;28;20138;-85
2022/10/19 02:36:59;;;;;;;8.03;3.50;;;;;;;5.52;100.00;102674.03;5026256;28;20033;-86
2022/10/19 02:39:25;;;;;;;4.83;3.60;;;;;;;5.52;100.00;102676.72;5027248;28;20064;-86
2022/10/19 02:41:58;;;;;;;13.00;4.03;;;;;;;5.43;100.00;102671.25;5026335;28;20064;-86
2022/10/19 02:44:30;;;;;;;4.23;3.80;;;;;;;5.52;100.00;102659.72;5027131;28;20041;-87
2022/10/19 02:47:10;;;;;;;4.10;3.80;;;;;;;5.47;100.00;102667.34;5025582;28;20072;-86
2022/10/19 02:49:37;;;;;;;5.03;3.87;;;;;;;5.40;100.00;102667.88;5027147;28;20365;-87
2022/10/19 02:52:08;;;;;;;4.40;3.53;;;;;;;5.33;100.00;102665.84;5026470;28;20102;-86
2022/10/19 02:54:34;;;;;;;19.03;3.40;;;;;;;5.34;100.00;102664.84;5027270;28;20084;-86
2022/10/19 02:56:59;;;;;;;8.87;4.23;;;;;;;5.41;100.00;102668.72;5015876;28;20549;-86
2022/10/19 02:59:25;;;;;;;12.90;4.30;;;;;;;5.41;100.00;102671.41;5026976;28;20371;-86
2022/10/19 03:01:51;;;;;;;10.63;5.53;;;;;;;5.45;100.00;102669.31;5027022;28;20464;-86
2022/10/19 03:04:16;;;;;;;12.40;4.30;;;;;;;5.30;100.00;102671.47;5027140;28;20053;-86
2022/10/19 03:06:41;;;;;;;21.60;4.73;;;;;;;5.18;100.00;102679.63;5025952;28;20120;-86
2022/10/19 03:09:07;;;;;;;6.07;4.07;;;;;;;5.27;100.00;102682.50;5026858;28;20044;-86
2022/10/19 03:11:33;;;;;;;7.30;4.67;;;;;;;5.27;100.00;102682.50;5000188;28;20029;-86
2022/10/19 03:13:58;;;;;;;7.60;4.60;;;;;;;5.28;100.00;102684.22;5026448;28;20036;-86
2022/10/19 03:16:23;;;;;;;8.23;5.03;;;;;;;5.28;100.00;102674.31;5026396;28;20044;-87
2022/10/19 03:18:49;;;;;;;6.57;5.27;;;;;;;5.33;100.00;102676.59;5027331;28;20048;-88
2022/10/19 03:21:16;;;;;;;9.70;5.80;;;;;;;5.36;100.00;102679.03;5015630;28;20064;-88
2022/10/19 03:23:41;;;;;;;11.87;6.60;;;;;;;5.52;100.00;102678.53;5028213;28;20029;-88
2022/10/19 03:26:10;;;;;;;13.27;7.57;;;;;;;5.56;100.00;102675.47;5030911;28;20044;-87
2022/10/19 03:28:36;;;;;;;13.13;7.00;;;;;;;5.43;100.00;102653.31;5030796;28;20029;-89
2022/10/19 03:31:01;;;;;;;19.13;10.53;;;;;;;5.85;100.00;102665.81;5030477;28;20040;-88
2022/10/19 03:33:26;;;;;;;15.90;11.60;;;;;;;5.88;100.00;102663.69;5030839;28;20053;-86
2022/10/19 03:36:11;;;;;;;17.93;11.87;;;;;;;5.98;100.00;102661.06;5030264;28;20473;-86
2022/10/19 03:38:36;;;;;;;19.27;11.20;;;;;;;6.04;100.00;102655.16;5030731;28;20044;-87
2022/10/19 03:41:08;;;;;;;15.67;9.63;;;;;;;6.00;100.00;102660.94;5003163;28;20485;-87
2022/10/19 03:43:33;;;;;;;17.70;10.83;;;;;;;6.10;100.00;102669.06;5030587;28;20157;-87
2022/10/19 03:45:59;;;;;;;18.43;8.17;;;;;;;5.95;100.00;102665.84;5029895;28;20037;-87
2022/10/19 03:48:24;;;;;;;10.27;7.33;;;;;;;5.83;100.00;102663.25;5030066;28;20036;-87
2022/10/19 03:50:59;;;;;;;15.03;8.43;;;;;;;5.95;100.00;102664.00;5030483;28;20041;-87
2022/10/19 03:53:24;;;;;;;17.50;10.00;;;;;;;6.02;100.00;102667.03;5030591;28;20041;-87
2022/10/19 03:55:49;;;;;;;21.47;10.60;;;;;;;5.91;100.00;102646.44;5029969;28;20473;-86
2022/10/19 03:58:15;;;;;;;17.33;9.97;;;;;;;5.99;100.00;102678.06;4990010;28;20492;-87
2022/10/19 04:00:40;;;;;;;14.87;8.60;;;;;;;6.01;100.00;102676.09;5029842;28;20392;-87
2022/10/19 04:03:05;;;;;;;11.20;6.03;;;;;;;5.81;100.00;102670.63;5029225;28;20397;-86
2022/10/19 04:05:31;;;;;;;7.97;5.83;;;;;;;5.74;100.00;102673.00;5008048;28;20155;-87
2022/10/19 04:07:56;;;;;;;10.77;6.90;;;;;;;5.80;100.00;102679.66;5029524;28;20033;-87
2022/10/19 04:10:21;;;;;;;11.83;6.70;;;;;;;5.85;100.00;102676.59;5030004;28;20174;-87
2022/10/19 04:12:47;;;;;;;14.13;7.23;;;;;;;5.93;100.00;102676.75;5029825;28;20772;-86
2022/10/19 04:15:12;;;;;;;16.57;8.23;;;;;;;5.96;100.00;102681.03;5029826;28;20033;-88
2022/10/19 04:17:37;;;;;;;16.10;8.97;;;;;;;5.86;100.00;102680.94;5028060;28;20083;-87
2022/10/19 04:20:03;;;;;;;19.77;9.50;;;;;;;5.93;100.00;102676.75;5029648;28;20041;-87
2022/10/19 04:22:28;;;;;;;13.40;7.30;;;;;;;5.84;100.00;102677.56;5029281;28;20040;-88
2022/10/19 04:24:54;;;;;;;16.83;8.43;;;;;;;5.85;100.00;102682.81;5029618;28;20827;-89
2022/10/19 04:27:19;;;;;;;13.23;7.90;;;;;;;5.84;100.00;102670.34;5029594;28;20490;-87
2022/10/19 04:29:44;;;;;;;13.83;8.10;;;;;;;5.84;100.00;102675.72;5008078;28;20052;-86
2022/10/19 04:32:10;;;;;;;14.73;8.50;;;;;;;5.90;100.00;102667.13;5028964;28;20541;-86
2022/10/19 04:34:35;;;;;;;14.57;8.30;;;;;;;5.85;100.00;102663.97;5029111;28;20143;-87
2022/10/19 04:37:00;;;;;;;13.73;7.60;;;;;;;5.91;100.00;102666.09;5006848;28;20586;-87
2022/10/19 04:39:26;;;;;;;13.90;7.90;;;;;;;5.94;100.00;102669.53;5029122;28;20576;-87
2022/10/19 04:41:51;;;;;;;16.90;9.07;;;;;;;5.98;100.00;102668.28;5028667;28;20556;-87
2022/10/19 04:44:16;;;;;;;15.40;9.10;;;;;;;5.99;100.00;102672.69;5029549;28;20547;-88
2022/10/19 04:46:42;;;;;;;18.10;9.10;;;;;;;6.07;100.00;102671.00;5001280;28;20096;-88
2022/10/19 04:49:07;;;;;;;17.50;8.60;;;;;;;5.96;100.00;102654.94;5028676;28;20029;-88
2022/10/19 04:51:33;;;;;;;12.93;8.30;;;;;;;6.04;100.00;102663.22;5002615;28;20037;-87
2022/10/19 04:53:59;;;;;;;14.33;7.87;;;;;;;5.95;100.00;102660.47;5006245;28;20036;-86
2022/10/19 04:56:25;;;;;;;17.53;8.77;;;;;;;6.02;100.00;102664.34;5029031;28;20273;-87
2022/10/19 04:58:56;;;;;;;14.83;8.20;;;;;;;5.89;100.00;102668.09;5027360;28;20037;-86
2022/10/19 05:01:24;;;;;;;13.53;8.37;;;;;;;6.04;100.00;102670.44;5028812;28;20552;-86
2022/10/19 05:03:55;;;;;;;14.17;8.03;;;;;;;6.01;100.00;102665.31;5022626;28;20033;-85
2022/10/19 05:06:20;;;;;;;15.07;8.93;;;;;;;6.01;100.00;102678.78;5028831;28;20044;-86
2022/10/19 05:08:47;;;;;;;18.13;9.23;;;;;;;5.95;100.00;102676.63;5029117;28;20064;-86
2022/10/19 05:11:14;;;;;;;16.67;8.83;;;;;;;5.97;100.00;102667.44;5028366;28;20045;-86
2022/10/19 05:13:41;;;;;;;12.10;8.30;;;;;;;6.05;100.00;102669.44;5028718;28;20047;-86
2022/10/19 05:16:09;;;;;;;14.00;8.90;;;;;;;6.10;100.00;102672.56;5026886;28;20078;-86
2022/10/19 05:18:35;;;;;;;18.10;9.20;;;;;;;6.01;100.00;102676.09;5028928;28;20041;-88
2022/10/19 05:21:04;;;;;;;13.17;8.67;;;;;;;5.89;100.00;102662.72;5028300;28;21361;-87
2022/10/19 05:23:30;;;;;;;19.77;8.67;;;;;;;5.85;100.00;102660.44;5028222;28;20120;-89
2022/10/19 05:26:04;;;;;;;15.50;8.57;;;;;;;6.00;100.00;102669.03;5028495;28;20051;-88
2022/10/19 05:28:30;;;;;;;16.57;9.03;;;;;;;6.00;100.00;102655.56;5028437;28;20464;-88
2022/10/19 05:31:07;;;;;;;13.77;8.03;;;;;;;5.99;100.00;102653.84;5029179;28;20044;-88
2022/10/19 05:33:33;;;;;;;13.40;8.20;;;;;;;5.98;100.00;102649.47;5027703;28;20041;-88
2022/10/19 05:35:58;;;;;;;14.13;7.47;;;;;;;5.86;100.00;102648.66;5027564;28;20401;-87
2022/10/19 05:38:23;;;;;;;13.87;7.87;;;;;;;5.85;100.00;102647.84;5027406;28;20060;-87
2022/10/19 05:40:49;;;;;;;11.33;6.57;;;;;;;5.91;100.00;102649.13;5028114;28;20037;-87
2022/10/19 05:43:14;;;;;;;12.40;7.20;;;;;;;5.85;100.00;102642.44;5027648;28;20459;-88
2022/10/19 05:45:39;;;;;;;13.07;6.77;;;;;;;5.86;100.00;102636.09;5027585;28;20574;-87
2022/10/19 05:48:05;;;;;;;13.30;7.20;;;;;;;5.80;100.00;102639.31;5028078;28;20041;-87
2022/10/19 05:50:30;;;;;;;12.07;7.77;;;;;;;5.77;100.00;102633.34;5000401;28;20199;-87
2022/10/19 05:52:55;;;;;;;15.83;7.60;;;;;;;5.69;100.00;102634.88;5027331;28;20511;-87
2022/10/19 05:55:21;;;;;;;12.93;7.03;;;;;;;5.72;100.00;102639.16;5005954;28;20259;-87
2022/10/19 05:57:46;;;;;;;14.00;8.00;;;;;;;5.74;100.00;102629.13;5027592;28;20045;-87
2022/10/19 06:00:12;;;;;;;16.70;8.90;;;;;;;5.66;100.00;102650.47;5028115;28;20172;-87
2022/10/19 06:02:37;;;;;;;15.37;9.50;;;;;;;5.67;100.00;102641.38;5005358;28;20095;-87
2022/10/19 06:05:03;;;;;;;17.37;8.67;;;;;;;5.58;100.00;102641.19;5027145;28;20128;-87
2022/10/19 06:07:28;;;;;;;16.07;9.33;;;;;;;5.67;100.00;102639.56;5027964;28;20039;-87
2022/10/19 06:09:53;;;;;;;15.03;9.03;;;;;;;5.70;100.00;102636.59;5027200;28;20049;-86
2022/10/19 06:12:19;;;;;;;16.37;9.37;;;;;;;5.68;100.00;102641.25;5026979;28;20049;-88
2022/10/19 06:14:44;;;;;;;18.53;10.13;;;;;;;5.60;100.00;102649.13;5028542;28;20037;-88
2022/10/19 06:17:10;;;;;;;19.57;10.77;;;;;;;5.57;100.00;102620.66;5026835;28;20048;-88
2022/10/19 06:19:35;;;;;;;18.87;10.03;;;;;;;5.68;100.00;102637.72;5027170;28;20044;-88
2022/10/19 06:22:00;;;;;;;17.47;10.27;;;;;;;5.66;100.00;102634.31;5027666;28;20193;-88
2022/10/19 06:24:26;;;;;;;14.97;9.97;;;;;;;5.69;100.00;102640.25;5000980;28;20124;-88
2022/10/19 06:26:51;;;;;;;16.43;9.60;;;;;;;5.69;100.00;102629.50;5004886;28;20195;-87
2022/10/19 06:29:17;;;;;;;15.40;9.93;;;;;;;5.66;100.00;102634.31;5027020;28;20043;-87
2022/10/19 06:31:42;;;;;;;15.40;9.73;;;;;;;5.78;100.00;102624.28;5005341;28;21502;-87
2022/10/19 06:34:07;;;;;;;16.03;10.20;;;;;;;5.76;100.00;102619.06;5032137;28;20033;-87
2022/10/19 06:36:33;;;;;;;19.43;11.63;;;;;;;5.78;100.00;102630.53;5051816;28;20084;-88
2022/10/19 06:39:00;;;;;;;19.73;11.27;;;;;;;5.84;100.00;102638.06;5044887;28;20042;-88
2022/10/19 06:41:26;;;;;;;16.20;11.20;;;;;;;5.82;100.00;102628.41;5033789;28;20033;-91
2022/10/19 06:43:53;;;;;;;17.43;11.50;;;;;;;5.84;100.00;102615.69;5007293;28;20396;-88
2022/10/19 06:46:22;;;;;;;19.17;11.47;;;;;;;5.89;100.00;102630.44;5021225;28;20029;-88
2022/10/19 06:49:05;;;;;;;22.37;12.33;;;;;;;5.94;100.00;102634.53;5003967;28;20472;-88
2022/10/19 06:51:32;;;;;;;17.97;13.10;;;;;;;6.07;100.00;102643.25;5022794;28;20034;-88
2022/10/19 06:53:58;;;;;;;24.03;13.30;;;;;;;6.07;100.00;102644.09;5029610;28;20037;-89
2022/10/19 06:56:25;;;;;;;20.27;14.00;;;;;;;6.11;100.00;102650.06;5029992;28;20032;-89
2022/10/19 06:58:51;;;;;;;23.70;14.70;;;;;;;6.26;100.00;102645.13;5028267;28;20026;-88
2022/10/19 07:01:17;;;;;;;21.37;15.67;;;;;;;6.29;100.00;102649.41;5011562;28;20033;-88
2022/10/19 07:03:42;;;;;;;23.03;15.27;;;;;;;6.40;100.00;102644.72;5029464;28;20787;-88
2022/10/19 07:06:10;;;;;;;22.70;16.00;;;;;;;6.47;100.00;102644.16;5003246;28;20071;-88
2022/10/19 07:08:37;;;;;;;23.63;16.57;;;;;;;6.53;100.00;102655.22;5028200;28;20037;-87
2022/10/19 07:11:13;;;;;;;24.53;16.97;;;;;;;6.64;100.00;102650.72;5030074;28;20068;-88
2022/10/19 07:13:39;;;;;;;22.30;16.67;;;;;;;6.80;100.00;102645.59;5029064;28;20257;-87
2022/10/19 07:16:10;;;;;;;22.93;16.67;;;;;;;6.83;100.00;102639.09;5029201;28;20041;-88
2022/10/19 07:18:37;;;;;;;22.47;15.83;;;;;;;7.01;100.00;102634.66;5004509;28;21510;-88
2022/10/19 07:21:06;;;;;;;22.30;15.60;;;;;;;7.05;100.00;102637.91;5027403;28;20148;-88
2022/10/19 07:23:33;;;;;;;23.10;16.03;;;;;;;7.20;100.00;102647.25;5027553;28;20056;-87
2022/10/19 07:26:04;;;;;;;22.07;15.50;;;;;;;7.37;100.00;102639.38;5029498;28;20044;-88
2022/10/19 07:28:30;;;;;;;22.53;15.13;;;;;;;7.47;100.00;102644.78;5009746;28;22185;-88
2022/10/19 07:30:55;;;;;;;20.87;14.53;;;;;;;7.67;100.00;102634.75;5028614;28;20071;-89
2022/10/19 07:33:21;;;;;;;18.53;12.97;;;;;;;7.99;100.00;102641.56;5028709;28;20040;-88
2022/10/19 07:35:47;;;;;;;19.10;12.40;;;;;;;8.22;100.00;102644.69;5029168;28;20067;-89
2022/10/19 07:38:12;;;;;;;14.70;9.93;;;;;;;8.35;100.00;102637.06;5027328;28;20049;-89
2022/10/19 07:40:37;;;;;;;17.63;10.83;;;;;;;8.75;100.00;102641.19;5029449;28;20049;-88
2022/10/19 07:43:03;;;;;;;16.13;10.37;;;;;;;8.91;100.00;102637.78;5004800;28;20041;-88
2022/10/19 07:45:29;;;;;;;15.33;8.80;;;;;;;9.12;100.00;102652.78;5029853;28;20032;-88
2022/10/19 07:47:55;;;;;;;13.57;8.40;;;;;;;9.29;100.00;102646.50;5029078;28;20128;-89
2022/10/19 07:50:23;;;;;;;15.73;7.97;;;;;;;9.62;100.00;102646.69;5028035;28;20040;-89
2022/10/19 07:52:50;;;;;;;12.60;7.20;;;;;;;9.84;100.00;102649.84;5028971;28;20029;-88
2022/10/19 07:55:16;;;;;;;13.27;6.93;;;;;;;9.86;100.00;102641.53;5024357;28;20040;-91
2022/10/19 07:57:41;;;;;;;13.57;7.20;;;;;;;10.21;100.00;102635.06;5033154;28;20033;-90
2022/10/19 08:00:07;;;;;;;12.57;7.10;;;;;;;10.32;100.00;102636.59;5026429;28;20159;-90
2022/10/19 08:02:33;;;;;;;14.07;7.00;;;;;;;10.55;100.00;102636.88;5019885;28;20477;-89
2022/10/19 08:04:58;;;;;;;11.57;6.70;;;;;;;10.70;100.00;102628.88;5032944;28;20032;-89
2022/10/19 08:07:23;;;;;;;10.67;6.53;;;;;;;10.96;100.00;102627.88;5029630;28;20555;-88
2022/10/19 08:09:49;;;;;;;12.43;6.83;;;;;;;11.30;99.92;102630.38;5022558;28;20533;-88
2022/10/19 08:12:14;;;;;;;11.27;6.70;;;;;;;11.64;99.14;102631.97;5032662;28;20041;-88
2022/10/19 08:14:39;;;;;;;11.67;6.60;;;;;;;11.75;96.77;102628.03;5037652;28;20059;-89
2022/10/19 08:17:05;;;;;;;12.23;7.10;;;;;;;11.93;97.05;102625.06;5036743;28;20061;-89
2022/10/19 08:19:30;;;;;;;10.97;6.40;;;;;;;12.36;94.82;102629.28;5022597;28;20090;-88
2022/10/19 08:21:55;;;;;;;11.03;6.07;;;;;;;12.43;92.69;102625.66;5053533;28;20036;-87
2022/10/19 08:24:21;;;;;;;11.60;6.23;;;;;;;12.65;89.26;102626.69;5037714;28;20037;-90
2022/10/19 08:26:52;;;;;;;9.43;6.27;;;;;;;12.82;89.72;102624.69;5026466;28;20038;-88
2022/10/19 08:29:19;;;;;;;11.00;5.50;;;;;;;13.00;86.04;102631.66;5031672;28;20064;-89
2022/10/19 08:31:46;;;;;;;10.87;5.77;;;;;;;13.02;87.21;102615.16;5055106;28;20025;-91
2022/10/19 08:34:12;;;;;;;10.17;5.53;;;;;;;13.22;85.19;102629.91;5036663;28;20373;-90
2022/10/19 08:36:38;;;;;;;8.20;5.40;;;;;;;13.40;86.26;102632.31;5045590;28;20485;-90
2022/10/19 08:39:06;;;;;;;10.50;5.60;;;;;;;13.32;86.08;102616.88;5046078;28;20029;-91
2022/10/19 08:48:26;;;;;;;10.40;5.23;;;;;;;13.56;84.92;102601.34;5035036;28;20209;-91
2022/10/19 08:50:53;;;;;;;10.17;5.10;;;;;;;13.26;84.29;102604.03;5034484;28;20021;-90
2022/10/19 08:53:53;;;;;;;9.10;4.63;;;;;;;13.89;87.03;102595.47;5035462;28;20029;-91
2022/10/19 08:56:32;;;;;;;6.70;4.17;;;;;;;14.14;83.26;102590.50;5049763;28;20365;-90
2022/10/19 08:59:10;;;;;;;7.97;4.30;;;;;;;14.28;83.54;102594.22;5037677;28;20041;-90
2022/10/19 09:01:47;;;;;;;9.10;4.53;;;;;;;14.45;83.15;102586.63;5033686;28;20461;-90
2022/10/19 09:04:24;;;;;;;9.17;3.97;;;;;;;14.22;80.49;102591.41;5033441;28;20083;-89
2022/10/19 09:07:20;;;;;;;6.33;3.40;;;;;;;14.26;79.06;102593.56;5037185;28;20013;-90
2022/10/19 09:09:58;;;;;;;10.77;3.93;;;;;;;14.49;77.37;102596.09;5031084;28;20033;-91
2022/10/19 09:12:36;;;;;;;7.03;3.47;;;;;;;14.80;79.67;102594.94;5034339;28;20029;-90
2022/10/19 09:15:10;;;;;;;8.47;3.40;;;;;;;14.88;73.75;102595.81;5041923;28;20028;-90
2022/10/19 09:17:35;;;;;;;6.10;3.50;;;;;;;14.65;74.88;102586.00;5037389;28;20056;-89
2022/10/19 09:20:16;;;;;;;6.87;3.10;;;;;;;14.88;76.53;102574.84;5045135;28;20462;-90
2022/10/19 09:22:43;;;;;;;7.13;3.30;;;;;;;14.81;75.47;102579.41;5015160;28;20036;-89
2022/10/19 09:25:23;;;;;;;9.23;2.90;;;;;;;14.97;75.59;102581.84;5054537;28;20025;-91
2022/10/19 09:28:02;;;;;;;7.40;3.00;;;;;;;15.01;74.66;102572.22;5048557;28;20021;-90
2022/10/19 09:30:30;;;;;;;8.97;2.90;;;;;;;14.73;75.10;102566.75;5041062;28;20056;-89
2022/10/19 09:33:00;;;;;;;10.23;3.70;;;;;;;14.91;74.95;102568.16;5051267;28;20041;-92
2022/10/19 09:35:37;;;;;;;7.50;2.60;;;;;;;15.09;71.21;102570.38;5028147;28;20099;-90
2022/10/19 09:38:05;;;;;;;8.70;2.70;;;;;;;14.99;71.02;102582.47;5055340;28;20032;-93
2022/10/19 09:40:31;;;;;;;8.53;2.57;;;;;;;15.08;71.95;102587.78;5054332;28;20024;-94
2022/10/19 09:42:58;;;;;;;8.97;2.43;;;;;;;15.07;72.76;102581.50;5041599;28;20377;-94
2022/10/19 09:45:43;;;;;;;6.93;2.40;;;;;;;15.49;71.72;102584.25;5057537;28;20465;-93
2022/10/19 09:48:38;;;;;;;7.47;2.77;;;;;;;15.57;71.71;102589.56;5056048;28;20028;-94
2022/10/19 09:51:11;;;;;;;6.03;2.67;;;;;;;15.57;69.78;102578.63;5052511;28;20116;-90
2022/10/19 09:53:42;;;;;;;8.05;2.72;;;;;;;15.24;71.70;102579.28;5044777;28;20031;-96
2022/10/19 09:56:20;;;;;;;9.70;2.75;;;;;;;14.82;73.46;102560.13;5026726;28;20045;-94
2022/10/19 09:58:53;;;;;;;6.40;2.60;;;;;;;15.05;72.96;102563.63;5045519;28;20031;-95
2022/10/19 10:01:36;;;;;;;6.40;2.42;;;;;;;15.28;74.61;102575.09;5044596;28;20017;-93
2022/10/19 10:04:07;;;;;;;5.97;2.20;;;;;;;15.19;74.10;102560.78;5034784;28;20063;-95
2022/10/19 10:06:33;;;;;;;8.67;2.30;;;;;;;15.33;73.01;102560.88;5038677;28;20029;-91
2022/10/19 10:08:59;;;;;;;8.07;2.37;;;;;;;15.40;72.67;102566.38;5057424;28;20404;-92
2022/10/19 10:11:29;;;;;;;3.92;2.20;;;;;;;15.39;70.82;102553.75;5057682;28;20083;-93
2022/10/19 10:13:57;;;;;;;5.80;2.03;;;;;;;15.43;69.77;102555.03;5049870;28;20021;-92
2022/10/19 10:16:29;;;;;;;6.50;2.30;;;;;;;15.36;72.41;102547.63;5039960;28;20036;-95
2022/10/19 10:18:57;;;;;;;7.43;2.70;;;;;;;15.32;69.46;102538.16;5052699;28;20033;-94
2022/10/19 10:21:31;;;;;;;5.40;2.40;;;;;;;15.49;68.38;102530.47;5040595;28;20083;-92
2022/10/19 10:24:11;;;;;;;11.07;2.45;;;;;;;15.54;69.62;102529.84;5045157;28;20037;-94
2022/10/19 10:26:39;;;;;;;5.43;2.03;;;;;;;15.47;69.04;102529.00;5050753;28;20029;-93
2022/10/19 10:29:25;;;;;;;9.07;2.55;;;;;;;15.92;69.71;102534.84;5054682;28;20040;-96
2022/10/19 10:32:18;;;;;;;5.75;2.33;;;;;;;15.88;69.41;102541.75;5045814;28;20104;-94
2022/10/19 10:34:47;;;;;;;5.85;1.95;;;;;;;15.92;69.99;102545.78;5034896;28;20049;-94
2022/10/19 10:37:22;;;;;;;8.13;2.20;;;;;;;15.97;67.02;102535.06;5030160;28;20045;-95
2022/10/19 10:39:52;;;;;;;6.93;2.50;;;;;;;16.01;68.59;102544.53;5037988;28;20369;-95
2022/10/19 10:42:25;;;;;;;6.80;2.35;;;;;;;15.95;65.47;102536.31;5013528;28;20036;-93
2022/10/19 10:44:53;;;;;;;7.90;2.60;;;;;;;15.86;65.62;102528.31;5031387;28;20029;-91
2022/10/19 10:47:20;;;;;;;6.47;2.25;;;;;;;15.90;65.25;102534.22;5033813;28;20040;-90
2022/10/19 10:50:05;;;;;;;6.22;2.17;;;;;;;15.75;68.15;102523.44;5016534;28;20044;-94
2022/10/19 10:52:31;;;;;;;3.40;1.92;;;;;;;15.58;65.54;102522.09;5022501;28;20041;-92
2022/10/19 10:55:03;;;;;;;5.33;2.27;;;;;;;15.55;66.10;102522.50;5029798;28;20029;-91
2022/10/19 10:57:38;;;;;;;6.50;2.40;;;;;;;15.45;65.29;102520.13;5027620;28;20046;-92
2022/10/19 11:00:14;;;;;;;7.43;2.40;;;;;;;15.26;68.80;102506.22;5021276;28;20045;-94
2022/10/19 11:02:50;;;;;;;10.50;2.87;;;;;;;15.23;67.19;102516.69;5021497;28;20620;-92
2022/10/19 11:05:23;;;;;;;6.27;2.60;;;;;;;15.16;66.67;102506.59;5023603;28;20034;-91
2022/10/19 11:08:02;;;;;;;7.67;2.53;;;;;;;15.32;67.53;102501.81;5024168;28;20037;-90
2022/10/19 11:10:42;;;;;;;6.83;2.60;;;;;;;15.11;69.09;102486.38;5023041;28;20033;-92
2022/10/19 11:13:22;;;;;;;8.70;2.73;;;;;;;15.08;68.43;102481.31;5021429;28;20113;-91
2022/10/19 11:15:59;;;;;;;8.27;2.50;;;;;;;14.98;67.45;102488.00;4987803;28;20037;-91
2022/10/19 11:18:31;;;;;;;7.73;2.50;;;;;;;14.95;68.17;102477.47;5017197;28;20144;-90
2022/10/19 11:20:59;;;;;;;9.03;2.70;;;;;;;14.74;68.48;102486.59;5018899;28;20033;-89
2022/10/19 11:24:17;;;;;;;8.80;2.60;;;;;;;15.13;67.68;102481.56;5019338;28;20034;-91
2022/10/19 11:26:58;;;;;;;10.60;3.00;;;;;;;14.75;67.69;102485.53;4991284;28;20049;-92
2022/10/19 11:29:32;;;;;;;6.77;2.67;;;;;;;14.64;67.61;102470.56;5020061;28;20041;-92
2022/10/19 11:31:58;;;;;;;8.23;2.80;;;;;;;14.49;68.19;102467.91;5004334;28;20049;-92
2022/10/19 11:34:29;;;;;;;9.87;3.33;;;;;;;14.52;68.06;102462.06;5023850;28;20060;-91
2022/10/19 11:37:34;;;;;;;8.37;2.93;;;;;;;14.53;69.40;102463.75;5027956;28;20421;-89